Accueil
METAR-TAF:

METAR-TAF

Aéroports :

Aéroport de Gênes-Christophe Colomb

Gênes, Italie

latitude: 44-25N, longitude: 008-51E, altitude: 2 m

Observation

Le bulletin a été fait il y a 30 minutes, à 16:20 UTC
Vent 10 kt de nord-est
Température 11°C
Humidité 47%
Pression 1016 hPa
Visibilité 10 km ou plus
Quelques nuages à une hauteur de 2500 ft

METAR: LIMJ 011620Z 04010KT 9999 FEW025 11/00 Q1016

Heure: 17:50 (16:50 UTC)

Prévision

Le bulletin a été fait il y a 5 heures et 50 minutes, à 11:00 UTC
Prévision valable du 01 à 12 UTC au 02 à 12 UTC
Vent 16 kt de nord-est
Visibilité 10 km ou plus
Quelques nuages à une hauteur de 6000 ft

TAF: LIMJ 011100Z 0112/0212 04016KT 9999 FEW060

Observations et prévisions météorologiques de plus de 4000 aéroports (messages METAR et TAF).

Les stations disponibles sont représentées par des disques jaunes et rouges sur la carte.

Passer la souris dessus pour voir le nom de la station.

Cliquer dessus pour voir les observations et prévisions météorologiques.

Pour changer de carte: cliquez sur les boutons verts avec une croix noire pour zoomer, sur le bouton vert avec un tiret pour effectuer un zoom arrière, ou sur les flèches vertes pour les cartes adjacentes.


METAR-TAF: